メインページ
METAR-TAF:

METAR-TAF

空港 :

ケルマーンシャー, イラン

緯度: 34-16N, 経度: 047-07E, 海抜: 1320m

現時点の気象観測

当レポートは13分前の06:30(UTC)に作成
無風
気温 10°C
湿度 37%
気圧 1024 hPa
視程10km以上
高度4000ftの雲はほとんどない
高度20000ftの千切れ雲あり

METAR: OICC 130630Z 00000KT 9999 FEW040 BKN200 10/M04 Q1024 A3025 NOSIG

時間: 10:13 (06:43 UTC)


TAF: 見つかりません

4,000以上の空港の気象観測と天気予報(METAR報とTAF報)

利用可能な観測所は地図上に黄色い丸と赤い丸で示す。

丸の上にカーソルを重ねると観測所名を参照できる。

次にクリックすると気象観測と天気予報を参照できる。

マップの切り替え:黒色「×」印の緑ボタンをクリックして拡大、「-」印の緑ボタンをクリックして縮小、緑色の三角印をクリックして隣りの地図に切り替え


METAR-TAF: